createdAt,value
2019-01-08T07:38:53.966Z,2.00
2019-01-08T07:39:53.917Z,2.20
2019-01-08T07:40:53.887Z,3.00
2019-01-08T07:41:53.859Z,2.70
2019-01-08T07:42:53.834Z,3.00
2019-01-08T07:43:53.806Z,2.90
2019-01-08T07:44:53.781Z,2.90
2019-01-08T07:45:53.755Z,2.80
2019-01-08T07:46:53.728Z,2.90
2019-01-08T07:47:53.701Z,3.30
2019-01-08T07:48:53.677Z,2.90
2019-01-08T07:49:53.652Z,3.00
2019-01-08T07:50:53.628Z,3.70
2019-01-08T07:51:53.594Z,3.00
2019-01-08T07:52:53.577Z,2.60
2019-01-08T07:53:53.547Z,2.80
2019-01-08T07:54:53.522Z,3.00
2019-01-08T07:55:53.495Z,3.40
2019-01-08T07:56:53.470Z,3.00
2019-01-08T07:57:53.444Z,3.10
2019-01-08T07:58:53.417Z,4.10
2019-01-08T07:59:53.394Z,3.50
2019-01-08T08:00:53.369Z,3.40
2019-01-08T08:01:53.349Z,3.50
2019-01-08T08:02:53.324Z,3.10
2019-01-08T08:03:53.294Z,3.50
2019-01-08T08:04:53.269Z,3.50
2019-01-08T08:05:53.245Z,3.90
2019-01-08T08:06:53.215Z,3.50
2019-01-08T08:07:54.464Z,3.60
2019-01-08T08:08:53.218Z,3.70
2019-01-08T08:09:53.144Z,3.70
2019-01-08T08:10:53.148Z,3.30
2019-01-08T08:11:53.096Z,4.00
2019-01-08T08:12:53.071Z,3.50
2019-01-08T08:13:53.046Z,3.70
2019-01-08T08:14:53.020Z,3.50
2019-01-08T08:15:52.999Z,3.40
2019-01-08T08:16:52.972Z,3.90
2019-01-08T08:17:52.947Z,3.60
2019-01-08T08:18:52.925Z,4.00
2019-01-08T08:19:52.900Z,4.60
2019-01-08T08:20:52.873Z,3.30
2019-01-08T08:21:52.849Z,3.10
2019-01-08T08:22:52.825Z,3.10
2019-01-08T08:23:52.799Z,3.10
2019-01-08T08:24:52.775Z,3.00
2019-01-08T08:25:52.753Z,4.00
2019-01-08T08:26:52.725Z,3.30
2019-01-08T08:27:52.701Z,3.20
2019-01-08T08:28:52.676Z,3.20
2019-01-08T08:29:52.755Z,3.50
2019-01-08T08:30:58.567Z,3.10
2019-01-08T08:31:52.844Z,3.30
2019-01-08T08:32:52.799Z,3.20
2019-01-08T08:33:52.556Z,4.00
2019-01-08T08:34:52.673Z,2.60
2019-01-08T08:35:52.504Z,3.50
2019-01-08T08:36:52.482Z,3.10
2019-01-08T08:37:52.458Z,3.60
2019-01-08T08:38:52.454Z,2.80
2019-01-08T08:39:52.408Z,3.00
2019-01-08T08:40:52.385Z,2.70
2019-01-08T08:41:52.353Z,2.80
2019-01-08T08:42:52.333Z,2.80
2019-01-08T08:43:52.318Z,3.40
2019-01-08T08:44:52.293Z,3.40
2019-01-08T08:45:52.254Z,3.10
2019-01-08T08:46:52.231Z,3.30
2019-01-08T08:47:52.204Z,3.00
2019-01-08T08:48:52.190Z,3.60
2019-01-08T08:49:52.178Z,2.70
2019-01-08T08:50:52.135Z,3.50
2019-01-08T08:51:52.121Z,3.10
2019-01-08T08:52:52.095Z,2.90
2019-01-08T08:53:52.858Z,2.80
2019-01-08T08:54:52.037Z,3.00
2019-01-08T08:55:52.010Z,3.50
2019-01-08T08:56:51.988Z,3.00
2019-01-08T08:57:51.966Z,3.10
2019-01-08T08:58:51.954Z,3.40
2019-01-08T08:59:51.914Z,2.70
2019-01-08T09:00:51.891Z,3.00
2019-01-08T09:01:51.871Z,3.40
2019-01-08T09:02:51.853Z,2.90
2019-01-08T09:03:51.814Z,3.40
2019-01-08T09:04:51.796Z,3.00
2019-01-08T09:05:51.770Z,2.90
2019-01-08T09:06:51.760Z,3.50
2019-01-08T09:07:51.727Z,2.40
2019-01-08T09:08:51.701Z,3.20
2019-01-08T09:09:51.665Z,3.10
2019-01-08T09:10:51.643Z,3.20
2019-01-08T09:11:51.609Z,3.20
2019-01-08T09:12:51.595Z,2.80
2019-01-08T09:13:51.663Z,3.10
2019-01-08T09:14:51.556Z,3.30
2019-01-08T09:15:51.720Z,3.30
2019-01-08T09:16:51.489Z,2.90
2019-01-08T09:17:51.467Z,3.50
2019-01-08T09:18:51.437Z,3.10
2019-01-08T09:19:51.416Z,3.50
2019-01-08T09:20:51.399Z,3.20
2019-01-08T09:21:51.381Z,3.50
2019-01-08T09:22:51.339Z,3.90
2019-01-08T09:23:51.323Z,3.70
2019-01-08T09:24:51.366Z,3.00
2019-01-08T09:25:51.284Z,3.00
2019-01-08T09:26:51.249Z,2.90
2019-01-08T09:27:51.215Z,3.10
2019-01-08T09:28:51.201Z,4.10
2019-01-08T09:29:51.180Z,3.00
2019-01-08T09:30:51.158Z,3.10
2019-01-08T09:31:51.127Z,3.00
2019-01-08T09:32:51.114Z,2.70
2019-01-08T09:33:51.080Z,3.10
2019-01-08T09:34:51.048Z,3.00
2019-01-08T09:35:51.020Z,3.30
2019-01-08T09:36:50.997Z,3.20
2019-01-08T09:37:50.975Z,3.20
2019-01-08T09:38:50.950Z,3.30
2019-01-08T09:39:50.963Z,3.40
2019-01-08T09:40:50.924Z,3.60
2019-01-08T09:41:50.872Z,3.10
2019-01-08T09:42:50.857Z,3.40
2019-01-08T09:43:50.822Z,2.90
2019-01-08T09:44:50.808Z,3.00
2019-01-08T09:45:50.794Z,3.50
2019-01-08T09:46:50.755Z,3.60
2019-01-08T09:47:50.730Z,3.90
2019-01-08T09:48:50.708Z,3.50
2019-01-08T09:49:50.686Z,3.30
2019-01-08T09:50:50.660Z,3.50
2019-01-08T09:52:50.606Z,3.50
2019-01-08T09:53:50.581Z,3.50
2019-01-08T09:54:50.575Z,3.80
2019-01-08T09:55:50.543Z,3.00
2019-01-08T09:56:50.521Z,3.20
2019-01-08T09:57:50.486Z,3.50
2019-01-08T09:58:50.462Z,3.50
2019-01-08T09:59:50.431Z,3.60
2019-01-08T10:00:50.407Z,4.30
2019-01-08T10:01:50.493Z,3.40
2019-01-08T10:02:50.712Z,3.40
2019-01-08T10:03:50.394Z,3.30
2019-01-08T10:04:50.400Z,3.10
2019-01-08T10:05:50.601Z,3.40
2019-01-08T10:06:50.294Z,3.80
2019-01-08T10:07:50.307Z,3.30
2019-01-08T10:08:50.298Z,4.00
2019-01-08T10:09:50.192Z,4.20
2019-01-08T10:10:50.186Z,3.80
2019-01-08T10:11:50.154Z,4.10
2019-01-08T10:12:50.115Z,3.40
2019-01-08T10:13:50.117Z,3.90
2019-01-08T10:14:50.109Z,4.10
2019-01-08T10:15:50.068Z,3.80
2019-01-08T10:16:50.530Z,3.60
2019-01-08T10:17:50.000Z,4.00
2019-01-08T10:18:49.984Z,3.80
2019-01-08T10:19:49.945Z,3.60
2019-01-08T10:20:49.930Z,3.60
2019-01-08T10:21:49.943Z,4.00
2019-01-08T10:22:49.894Z,4.20
2019-01-08T10:23:49.887Z,3.60
2019-01-08T10:24:49.822Z,4.40
2019-01-08T10:25:49.805Z,3.60
2019-01-08T10:26:49.781Z,3.90
2019-01-08T10:27:49.754Z,3.60
2019-01-08T10:28:49.743Z,4.00
2019-01-08T10:29:49.700Z,4.60
2019-01-08T10:30:49.686Z,4.60
2019-01-08T10:31:49.865Z,4.30
2019-01-08T10:32:49.631Z,3.80
2019-01-08T10:33:49.921Z,3.80
2019-01-08T10:34:49.662Z,4.20
2019-01-08T10:35:49.564Z,3.70
2019-01-08T10:36:49.539Z,4.40
2019-01-08T10:37:49.516Z,4.30
2019-01-08T10:38:49.498Z,4.50
2019-01-08T10:39:49.454Z,3.60
2019-01-08T10:40:49.431Z,3.30
2019-01-08T10:41:49.416Z,3.70
2019-01-08T10:42:49.388Z,4.30
2019-01-08T10:43:49.370Z,4.40
2019-01-08T10:44:49.342Z,4.50
2019-01-08T10:45:49.319Z,4.50
2019-01-08T10:46:49.293Z,4.70
2019-01-08T10:47:49.268Z,4.90
2019-01-08T10:48:49.238Z,4.20
2019-01-08T10:49:49.232Z,3.90
2019-01-08T10:50:49.204Z,4.30
2019-01-08T10:51:49.166Z,4.90
2019-01-08T10:52:49.161Z,5.20
2019-01-08T10:53:49.139Z,5.30
2019-01-08T10:54:49.099Z,5.20
2019-01-08T10:55:49.083Z,4.30
2019-01-08T10:56:49.051Z,4.50
2019-01-08T10:57:49.033Z,5.20
2019-01-08T10:58:49.007Z,4.70
2019-01-08T10:59:48.970Z,4.90
2019-01-08T11:00:48.955Z,4.70
2019-01-08T11:01:48.924Z,4.40
2019-01-08T11:02:48.908Z,5.00
2019-01-08T11:03:48.887Z,4.70
2019-01-08T11:04:48.855Z,4.60
2019-01-08T11:05:48.833Z,5.30
2019-01-08T11:06:48.822Z,5.10
2019-01-08T11:07:48.796Z,4.70
2019-01-08T11:08:48.758Z,4.00
2019-01-08T11:09:48.735Z,5.20
2019-01-08T11:10:48.711Z,4.60
2019-01-08T11:11:48.686Z,4.70
2019-01-08T11:12:48.666Z,5.20
2019-01-08T11:13:48.630Z,4.50
2019-01-08T11:14:48.623Z,4.40
2019-01-08T11:15:48.612Z,4.70
2019-01-08T11:16:50.432Z,4.30
2019-01-08T11:17:48.558Z,4.10
2019-01-08T11:18:48.516Z,4.60
2019-01-08T11:19:48.501Z,4.20
2019-01-08T11:20:48.467Z,4.60
2019-01-08T11:21:48.447Z,4.40
2019-01-08T11:22:48.430Z,5.10
2019-01-08T11:23:48.403Z,3.80
2019-01-08T11:24:48.371Z,4.60
2019-01-08T11:25:48.346Z,4.60
2019-01-08T11:26:48.377Z,4.90
2019-01-08T11:27:48.302Z,4.40
2019-01-08T11:28:48.286Z,4.50
2019-01-08T11:29:48.248Z,4.70
2019-01-08T11:30:48.255Z,4.40
2019-01-08T11:31:49.050Z,4.70
2019-01-08T11:32:48.185Z,4.00
2019-01-08T11:33:48.150Z,4.10
2019-01-08T11:34:48.133Z,5.40
2019-01-08T11:35:48.111Z,4.30
2019-01-08T11:36:48.082Z,5.00
2019-01-08T11:37:48.054Z,4.50
2019-01-08T11:38:48.037Z,5.20
2019-01-08T11:39:48.010Z,4.50
2019-01-08T11:40:47.982Z,4.10
2019-01-08T11:41:47.969Z,4.80
2019-01-08T11:42:47.943Z,4.70
2019-01-08T11:43:47.918Z,4.20
2019-01-08T11:44:47.897Z,4.80
2019-01-08T11:45:47.872Z,4.90
2019-01-08T11:46:47.849Z,4.00
2019-01-08T11:47:47.832Z,4.00
2019-01-08T11:48:47.797Z,4.80
2019-01-08T11:49:47.773Z,4.80
2019-01-08T11:50:47.782Z,4.20
2019-01-08T11:51:47.735Z,4.80
2019-01-08T11:52:48.004Z,4.20
2019-01-08T11:53:47.687Z,4.60
2019-01-08T11:54:47.676Z,4.80
2019-01-08T11:55:47.637Z,4.40
2019-01-08T11:56:47.614Z,3.90
2019-01-08T11:57:47.595Z,4.20
2019-01-08T11:58:47.570Z,4.10
2019-01-08T11:59:48.301Z,4.20
2019-01-08T12:00:47.537Z,3.70
2019-01-08T12:01:47.500Z,3.60
2019-01-08T12:02:47.950Z,3.70
2019-01-08T12:03:47.445Z,4.40
2019-01-08T12:04:47.452Z,3.70
2019-01-08T12:05:47.404Z,3.40
2019-01-08T12:06:47.386Z,4.10
2019-01-08T12:07:47.356Z,3.80
2019-01-08T12:08:47.343Z,3.80
2019-01-08T12:09:47.341Z,3.80
2019-01-08T12:10:47.372Z,4.00
2019-01-08T12:11:47.256Z,3.10
2019-01-08T12:12:47.239Z,3.50
2019-01-08T12:13:47.214Z,3.50
2019-01-08T12:14:47.200Z,2.60
2019-01-08T12:15:47.173Z,3.20
2019-01-08T12:16:47.144Z,3.00
2019-01-08T12:17:47.117Z,3.00
2019-01-08T12:18:47.162Z,3.50
2019-01-08T12:19:47.069Z,2.90
2019-01-08T12:20:47.077Z,3.10
2019-01-08T12:21:47.040Z,2.70
2019-01-08T12:22:47.024Z,3.40
2019-01-08T12:23:46.974Z,3.40
2019-01-08T12:24:46.950Z,3.00
2019-01-08T12:25:46.934Z,2.80
2019-01-08T12:26:46.902Z,3.30
2019-01-08T12:27:46.891Z,3.10
2019-01-08T12:28:46.881Z,2.70
2019-01-08T12:29:46.858Z,2.90
2019-01-08T12:30:46.827Z,3.10
2019-01-08T12:31:46.787Z,3.00
2019-01-08T12:32:46.776Z,3.40
2019-01-08T12:33:46.781Z,3.90
2019-01-08T12:34:46.758Z,3.70
2019-01-08T12:35:46.701Z,3.50
2019-01-08T12:36:46.689Z,3.90
2019-01-08T12:37:46.663Z,4.00
2019-01-08T12:38:46.647Z,3.70
2019-01-08T12:39:46.605Z,4.30
2019-01-08T12:40:46.612Z,4.20
2019-01-08T12:41:46.584Z,3.50
2019-01-08T12:42:46.557Z,5.00
2019-01-08T12:43:46.506Z,3.70
2019-01-08T12:44:46.517Z,4.50
2019-01-08T12:45:46.510Z,5.10
2019-01-08T12:46:46.460Z,5.00
2019-01-08T12:47:46.440Z,5.10
2019-01-08T12:48:46.404Z,4.50
2019-01-08T12:49:46.393Z,4.50
2019-01-08T12:50:46.357Z,4.20
2019-01-08T12:51:46.342Z,5.00
2019-01-08T12:52:46.297Z,5.20
2019-01-08T12:53:46.289Z,4.40
2019-01-08T12:54:46.274Z,4.30
2019-01-08T12:55:46.257Z,4.40
2019-01-08T12:56:46.234Z,4.90
2019-01-08T12:57:46.216Z,4.40
2019-01-08T12:58:46.168Z,4.20
2019-01-08T12:59:46.171Z,3.90
2019-01-08T13:00:46.132Z,3.90
2019-01-08T13:01:46.103Z,4.10
2019-01-08T13:02:46.092Z,4.40
2019-01-08T13:03:46.055Z,3.90
2019-01-08T13:04:46.030Z,3.80
2019-01-08T13:05:46.004Z,3.90
2019-01-08T13:06:46.007Z,3.50
2019-01-08T13:07:45.953Z,4.30
2019-01-08T13:08:45.941Z,4.10
2019-01-08T13:09:45.916Z,4.30
2019-01-08T13:10:45.897Z,3.60
2019-01-08T13:11:45.863Z,3.80
2019-01-08T13:12:45.857Z,3.60
2019-01-08T13:13:45.819Z,3.90
2019-01-08T13:14:45.804Z,4.10
2019-01-08T13:15:45.779Z,3.10
2019-01-08T13:16:45.753Z,2.90
2019-01-08T13:17:45.730Z,2.60
2019-01-08T13:18:45.700Z,2.70
2019-01-08T13:19:45.671Z,3.00
2019-01-08T13:20:45.674Z,2.70
2019-01-08T13:21:45.637Z,2.90
2019-01-08T13:22:45.630Z,3.10
2019-01-08T13:23:45.630Z,2.30
2019-01-08T13:24:45.562Z,2.70
2019-01-08T13:25:45.543Z,3.10
2019-01-08T13:26:45.524Z,3.10
2019-01-08T13:27:45.497Z,2.50
2019-01-08T13:28:45.464Z,3.20
2019-01-08T13:29:45.456Z,2.70
2019-01-08T13:30:45.449Z,3.00
2019-01-08T13:31:45.402Z,2.70
2019-01-08T13:32:45.369Z,2.60
2019-01-08T13:33:45.344Z,3.20
2019-01-08T13:34:45.320Z,2.80
2019-01-08T13:35:45.347Z,4.10
2019-01-08T13:36:45.270Z,3.60
2019-01-08T13:37:45.270Z,3.30
2019-01-08T13:38:45.270Z,3.60
2019-01-08T13:39:45.205Z,4.00
2019-01-08T13:40:45.173Z,3.60
2019-01-08T13:41:45.149Z,3.80
2019-01-08T13:42:45.133Z,3.60
2019-01-08T13:43:45.104Z,3.50
2019-01-08T13:44:45.109Z,3.70
2019-01-08T13:45:45.087Z,3.50
2019-01-08T13:46:45.031Z,3.70
2019-01-08T13:47:45.044Z,3.30
2019-01-08T13:48:45.027Z,4.10
2019-01-08T13:49:46.560Z,3.90
2019-01-08T13:50:44.937Z,3.90
2019-01-08T13:51:44.945Z,4.10
2019-01-08T13:52:44.900Z,4.30
2019-01-08T13:53:44.890Z,4.20
2019-01-08T13:54:44.865Z,4.40
2019-01-08T13:55:44.844Z,3.50
2019-01-08T13:56:44.816Z,4.20
2019-01-08T13:57:44.777Z,3.90
2019-01-08T13:58:44.768Z,3.80
2019-01-08T13:59:44.764Z,4.30
2019-01-08T14:00:44.724Z,3.50
2019-01-08T14:01:44.691Z,3.80
2019-01-08T14:02:44.656Z,3.60
2019-01-08T14:03:44.636Z,4.10
2019-01-08T14:04:44.631Z,3.30
2019-01-08T14:05:44.613Z,3.50
2019-01-08T14:06:44.558Z,2.90
2019-01-08T14:07:44.563Z,3.10
2019-01-08T14:08:44.513Z,3.30
2019-01-08T14:09:44.503Z,3.90
2019-01-08T14:10:44.473Z,2.80
2019-01-08T14:11:44.439Z,3.10
2019-01-08T14:12:44.449Z,2.80
2019-01-08T14:13:44.391Z,3.40
2019-01-08T14:14:44.389Z,2.60
2019-01-08T14:15:44.354Z,2.80
2019-01-08T14:16:44.334Z,3.10
2019-01-08T14:17:44.329Z,3.10
2019-01-08T14:18:44.273Z,3.00
2019-01-08T14:19:44.251Z,3.30
2019-01-08T14:20:44.225Z,2.50
2019-01-08T14:21:44.201Z,2.60
2019-01-08T14:22:44.252Z,2.70
2019-01-08T14:23:44.179Z,2.70
2019-01-08T14:24:44.504Z,2.90
2019-01-08T14:25:44.357Z,2.80
2019-01-08T14:26:44.294Z,2.70
2019-01-08T14:27:44.095Z,2.60
2019-01-08T14:28:44.048Z,2.70
2019-01-08T14:29:44.010Z,3.20
2019-01-08T14:30:44.017Z,2.60
2019-01-08T14:31:43.958Z,3.10
2019-01-08T14:32:43.965Z,3.30
2019-01-08T14:33:43.915Z,3.20
2019-01-08T14:34:43.923Z,3.10
2019-01-08T14:35:43.885Z,3.80
2019-01-08T14:36:43.847Z,3.80
2019-01-08T14:37:43.842Z,3.50
2019-01-08T14:38:43.800Z,3.60
2019-01-08T14:39:43.790Z,4.00
2019-01-08T14:40:43.784Z,3.20
2019-01-08T14:41:43.729Z,4.10
2019-01-08T14:42:43.700Z,3.50
2019-01-08T14:43:43.673Z,3.70
2019-01-08T14:44:43.665Z,3.30
2019-01-08T14:45:43.939Z,3.70
2019-01-08T14:46:44.574Z,2.70
2019-01-08T14:47:43.859Z,3.70
2019-01-08T14:48:43.590Z,2.80
2019-01-08T14:49:43.550Z,3.10
2019-01-08T14:50:43.528Z,2.90
2019-01-08T14:51:43.490Z,3.10
2019-01-08T14:52:43.470Z,2.60
2019-01-08T14:53:43.438Z,2.60
2019-01-08T14:54:43.914Z,2.70
2019-01-08T14:55:43.405Z,2.90
2019-01-08T14:56:43.385Z,2.80
2019-01-08T14:57:43.366Z,3.20
2019-01-08T14:58:43.339Z,2.50
2019-01-08T14:59:43.290Z,2.70
2019-01-08T15:00:43.271Z,3.50
2019-01-08T15:01:43.243Z,2.80
2019-01-08T15:02:49.531Z,3.20
2019-01-08T15:03:43.258Z,2.80
2019-01-08T15:04:43.215Z,2.70
2019-01-08T15:05:43.149Z,2.80
2019-01-08T15:06:43.242Z,3.30
2019-01-08T15:07:43.196Z,3.30
2019-01-08T15:08:43.072Z,4.20
2019-01-08T15:09:43.054Z,3.70
2019-01-08T15:10:43.046Z,3.70
2019-01-08T15:11:43.019Z,3.40
2019-01-08T15:12:42.997Z,3.80
2019-01-08T15:13:42.958Z,3.40
2019-01-08T15:14:42.945Z,2.90
2019-01-08T15:15:42.950Z,3.00
2019-01-08T15:16:42.889Z,3.30
2019-01-08T15:17:42.853Z,3.40
2019-01-08T15:18:42.850Z,2.70
2019-01-08T15:19:42.827Z,3.30
2019-01-08T15:20:42.840Z,3.70
2019-01-08T15:21:42.762Z,3.20
2019-01-08T15:22:42.752Z,3.60
2019-01-08T15:23:42.719Z,2.90
2019-01-08T15:24:42.727Z,3.70
2019-01-08T15:25:42.686Z,3.40
2019-01-08T15:26:42.670Z,3.40
2019-01-08T15:27:42.658Z,3.30
2019-01-08T15:28:42.582Z,2.80
2019-01-08T15:29:42.598Z,3.60
2019-01-08T15:30:42.563Z,3.00
2019-01-08T15:31:42.529Z,3.90
2019-01-08T15:32:42.507Z,3.80
2019-01-08T15:33:42.467Z,3.30
2019-01-08T15:34:42.446Z,3.80
2019-01-08T15:35:42.451Z,3.30
2019-01-08T15:36:42.409Z,3.50
2019-01-08T15:37:42.401Z,3.80
2019-01-08T15:38:42.364Z,3.00
2019-01-08T15:39:42.313Z,3.80
2019-01-08T15:40:42.320Z,3.50
2019-01-08T15:41:42.308Z,3.60
2019-01-08T15:42:42.250Z,2.90
2019-01-08T15:43:42.239Z,3.60
2019-01-08T15:44:42.205Z,3.20
2019-01-08T15:45:42.174Z,3.50
2019-01-08T15:46:42.182Z,3.30
2019-01-08T15:47:42.134Z,3.50
2019-01-08T15:48:42.105Z,3.10
2019-01-08T15:49:42.108Z,4.10
2019-01-08T15:50:42.084Z,3.50
2019-01-08T15:51:42.047Z,3.90
2019-01-08T15:52:41.997Z,4.40
2019-01-08T15:53:41.988Z,3.30
2019-01-08T15:54:41.950Z,3.00
2019-01-08T15:55:41.942Z,3.10
2019-01-08T15:56:41.940Z,3.50
2019-01-08T15:57:41.926Z,3.50
2019-01-08T15:58:41.865Z,3.10
2019-01-08T15:59:41.849Z,3.00
2019-01-08T16:00:41.821Z,3.20
2019-01-08T16:01:41.784Z,3.30
2019-01-08T16:02:41.761Z,3.30
2019-01-08T16:03:41.734Z,3.70
2019-01-08T16:04:41.715Z,3.30
2019-01-08T16:05:41.700Z,3.60
2019-01-08T16:06:41.666Z,3.80
2019-01-08T16:07:41.843Z,3.20
2019-01-08T16:08:41.617Z,4.40
2019-01-08T16:09:41.596Z,3.30
2019-01-08T16:10:41.575Z,3.30
2019-01-08T16:11:41.544Z,3.50
2019-01-08T16:12:41.541Z,3.00
2019-01-08T16:13:41.514Z,3.30
2019-01-08T16:14:41.478Z,3.30
2019-01-08T16:15:41.443Z,3.40
2019-01-08T16:16:41.418Z,2.90
2019-01-08T16:17:41.396Z,3.50
2019-01-08T16:18:41.363Z,3.50
2019-01-08T16:19:41.339Z,3.50
2019-01-08T16:20:41.320Z,3.10
2019-01-08T16:21:41.298Z,3.10
2019-01-08T16:22:41.306Z,3.20
2019-01-08T16:23:41.241Z,3.50
2019-01-08T16:24:41.240Z,3.10
2019-01-08T16:25:41.205Z,3.50
2019-01-08T16:26:41.183Z,3.00
2019-01-08T16:27:41.152Z,3.90
2019-01-08T16:28:41.138Z,3.50
2019-01-08T16:29:41.100Z,3.80
2019-01-08T16:30:41.081Z,4.10
2019-01-08T16:31:41.136Z,4.60
2019-01-08T16:32:41.023Z,5.50
2019-01-08T16:33:41.006Z,3.50
2019-01-08T16:34:40.978Z,4.20
2019-01-08T16:35:40.965Z,3.50
2019-01-08T16:36:40.934Z,4.10
2019-01-08T16:37:40.910Z,6.40
2019-01-08T16:38:40.875Z,3.30
2019-01-08T16:39:40.852Z,3.90
2019-01-08T16:40:40.853Z,3.70
2019-01-08T16:41:40.832Z,4.00
2019-01-08T16:42:41.643Z,4.00
2019-01-08T16:43:40.792Z,3.70
2019-01-08T16:44:40.730Z,3.70
2019-01-08T16:45:40.731Z,4.50
2019-01-08T16:46:40.681Z,3.50
2019-01-08T16:47:40.683Z,3.20
2019-01-08T16:48:40.641Z,3.60
2019-01-08T16:49:40.637Z,3.40
2019-01-08T16:50:40.584Z,3.40
2019-01-08T16:51:40.581Z,3.20
2019-01-08T16:52:40.538Z,3.60
2019-01-08T16:56:46.657Z,3.40
2019-01-08T16:57:46.628Z,3.30
2019-01-08T16:58:47.075Z,3.30
2019-01-08T16:59:46.577Z,4.50
2019-01-08T17:00:46.560Z,4.30
2019-01-08T17:03:09.561Z,3.50
2019-01-08T17:04:09.529Z,4.40
2019-01-08T17:05:09.495Z,4.90
2019-01-08T17:06:09.473Z,4.50
2019-01-08T17:07:09.442Z,4.40
2019-01-08T17:08:09.421Z,4.40
2019-01-08T17:09:09.393Z,4.50
2019-01-08T17:10:09.369Z,4.30
2019-01-08T17:11:09.353Z,4.40
2019-01-08T17:12:09.316Z,5.90
2019-01-08T17:13:09.294Z,5.00
2019-01-08T17:14:09.297Z,3.80
2019-01-08T17:15:09.262Z,3.60
2019-01-08T17:16:09.228Z,4.90
2019-01-08T17:17:09.205Z,3.70
2019-01-08T17:18:09.222Z,3.10
2019-01-08T17:19:09.149Z,3.40
2019-01-08T17:20:09.123Z,3.50
2019-01-08T17:21:09.118Z,4.20
2019-01-08T17:22:09.072Z,4.60
2019-01-08T17:23:09.063Z,5.00
2019-01-08T17:24:09.021Z,3.40
2019-01-08T17:25:08.999Z,3.60
2019-01-08T17:26:08.986Z,3.40
2019-01-08T17:27:08.944Z,5.30
2019-01-08T17:28:08.925Z,4.10
2019-01-08T17:29:08.944Z,5.50
2019-01-08T17:30:08.873Z,4.40
2019-01-08T17:31:08.871Z,4.40
2019-01-08T17:32:08.833Z,4.30
2019-01-08T17:33:08.808Z,4.50
2019-01-08T17:34:08.794Z,4.80
2019-01-08T17:35:08.772Z,3.90
2019-01-08T17:36:08.742Z,3.60
2019-01-08T17:37:08.737Z,3.40
2019-01-08T17:38:08.684Z,3.70
2019-01-08T17:39:08.659Z,3.10
2019-01-08T17:40:08.634Z,3.20
2019-01-08T17:41:08.605Z,3.20
2019-01-08T17:42:08.578Z,3.10
2019-01-08T17:43:08.584Z,3.20
2019-01-08T17:44:08.552Z,3.20
2019-01-08T17:45:08.511Z,3.60
2019-01-08T17:46:08.519Z,2.70
2019-01-08T17:47:08.526Z,3.10
2019-01-08T17:48:08.470Z,3.10
2019-01-08T17:49:08.412Z,2.70
2019-01-08T17:50:08.415Z,2.30
2019-01-08T17:51:08.362Z,2.00
2019-01-08T17:52:08.339Z,2.90
2019-01-08T17:53:08.323Z,2.60
2019-01-08T17:54:08.284Z,2.40
2019-01-08T17:55:08.294Z,2.40
2019-01-08T17:56:08.242Z,2.40
2019-01-08T17:57:08.223Z,1.80
2019-01-08T17:58:08.207Z,2.50
2019-01-08T17:59:08.175Z,2.10
2019-01-08T18:00:08.145Z,3.00
2019-01-08T18:01:08.130Z,2.50
2019-01-08T18:02:08.108Z,2.80
2019-01-08T18:03:08.071Z,3.00
2019-01-08T18:04:08.072Z,2.80
2019-01-08T18:05:08.027Z,3.00
2019-01-08T18:06:08.057Z,3.00
2019-01-08T18:07:07.996Z,3.20
2019-01-08T18:08:07.977Z,2.70
2019-01-08T18:09:07.917Z,2.80
2019-01-08T18:10:07.888Z,2.80
2019-01-08T18:11:07.889Z,3.30
2019-01-08T18:12:07.842Z,3.40
2019-01-08T18:13:07.865Z,3.10
2019-01-08T18:14:07.792Z,4.30
2019-01-08T18:15:07.765Z,5.10
2019-01-08T18:16:07.761Z,4.50
2019-01-08T18:17:07.714Z,4.70
2019-01-08T18:18:07.699Z,5.00
2019-01-08T18:19:07.664Z,5.40
2019-01-08T18:20:07.672Z,5.50
2019-01-08T18:21:07.655Z,5.90
2019-01-08T18:22:07.642Z,4.60
2019-01-08T18:23:07.569Z,3.80
2019-01-08T18:24:07.557Z,4.20
2019-01-08T18:25:07.560Z,3.90
2019-01-08T18:26:07.497Z,3.60
2019-01-08T18:27:07.472Z,4.40
2019-01-08T18:28:07.470Z,3.80
2019-01-08T18:29:07.438Z,3.90
2019-01-08T18:30:07.390Z,4.10
2019-01-08T18:31:07.375Z,4.70
2019-01-08T18:32:07.369Z,4.50
2019-01-08T18:33:07.348Z,3.90
2019-01-08T18:34:07.314Z,3.60
2019-01-08T18:35:07.282Z,3.90
2019-01-08T18:36:07.271Z,3.90
2019-01-08T18:37:07.238Z,4.20
2019-01-08T18:38:07.194Z,3.80
2019-01-08T18:39:07.188Z,3.90
2019-01-08T18:40:07.161Z,3.60
2019-01-08T18:41:07.148Z,3.60
2019-01-08T18:42:07.140Z,3.60
2019-01-08T18:43:13.893Z,3.50
2019-01-08T18:44:07.048Z,3.70
2019-01-08T18:45:07.018Z,4.00
2019-01-08T18:46:07.023Z,4.00
2019-01-08T18:47:07.010Z,5.00
2019-01-08T18:48:06.981Z,4.40
2019-01-08T18:49:07.926Z,5.40
2019-01-08T18:50:06.911Z,5.00
2019-01-08T18:51:06.891Z,4.00
2019-01-08T18:52:06.872Z,5.40
2019-01-08T18:53:06.851Z,4.60
2019-01-08T18:54:06.846Z,4.40
2019-01-08T18:55:06.801Z,3.80
2019-01-08T18:56:06.765Z,3.80
2019-01-08T18:57:06.754Z,4.50
2019-01-08T18:58:06.714Z,3.80
2019-01-08T18:59:06.685Z,4.10
2019-01-08T19:00:06.650Z,3.60
2019-01-08T19:01:06.625Z,3.90
2019-01-08T19:02:06.598Z,4.80
2019-01-08T19:03:06.598Z,5.40
2019-01-08T19:04:06.553Z,5.20
2019-01-08T19:05:06.549Z,4.40
2019-01-08T19:06:06.526Z,4.60
2019-01-08T19:07:06.477Z,4.60
2019-01-08T19:08:06.505Z,3.80
2019-01-08T19:09:06.433Z,4.50
2019-01-08T19:10:06.450Z,3.50
2019-01-08T19:11:06.387Z,3.60
2019-01-08T19:12:06.385Z,2.90
2019-01-08T19:13:06.343Z,3.70
2019-01-08T19:14:06.315Z,3.30
2019-01-08T19:15:06.280Z,2.80
2019-01-08T19:16:06.338Z,3.20
2019-01-08T19:17:06.371Z,3.30
2019-01-08T19:18:06.207Z,3.80
2019-01-08T19:19:06.214Z,3.40
2019-01-08T19:20:06.162Z,3.90
2019-01-08T19:21:06.133Z,3.10
2019-01-08T19:22:06.213Z,3.10
2019-01-08T19:23:06.088Z,3.10
2019-01-08T19:24:06.055Z,2.90
2019-01-08T19:25:06.060Z,2.90
2019-01-08T19:26:06.017Z,3.10
2019-01-08T19:27:06.019Z,3.50
2019-01-08T19:28:05.987Z,2.70
2019-01-08T19:29:05.952Z,2.90
2019-01-08T19:30:05.933Z,3.40
2019-01-08T19:31:05.924Z,2.60
2019-01-08T19:32:05.919Z,3.40
2019-01-08T19:33:05.889Z,2.50
2019-01-08T19:34:09.276Z,2.50
2019-01-08T19:35:05.830Z,2.50
2019-01-08T19:36:05.772Z,3.30
2019-01-08T19:37:05.766Z,2.50
2019-01-08T19:38:05.729Z,2.70
2019-01-08T19:39:05.746Z,2.60
2019-01-08T19:40:05.663Z,3.30
2019-01-08T19:41:05.652Z,3.00
2019-01-08T19:42:05.624Z,2.70
2019-01-08T19:43:05.585Z,2.50
2019-01-08T19:44:05.599Z,2.10
2019-01-08T19:45:05.547Z,2.70
2019-01-08T19:46:05.522Z,2.90
2019-01-08T19:47:05.489Z,2.70
2019-01-08T19:48:05.472Z,3.20
2019-01-08T19:49:05.477Z,3.00
2019-01-08T19:50:05.443Z,3.00
2019-01-08T19:51:05.393Z,3.00
2019-01-08T19:52:05.377Z,3.60
2019-01-08T19:53:05.365Z,3.30
2019-01-08T19:54:05.334Z,3.20
2019-01-08T19:55:05.324Z,3.10
2019-01-08T19:56:05.261Z,3.20
2019-01-08T19:57:05.267Z,3.10
2019-01-08T19:58:05.225Z,3.00
2019-01-08T19:59:05.212Z,3.20
2019-01-08T20:00:05.175Z,3.50
2019-01-08T20:01:05.134Z,3.10
2019-01-08T20:02:05.124Z,3.00
2019-01-08T20:03:05.083Z,3.00
2019-01-08T20:04:05.063Z,3.20
2019-01-08T20:05:05.063Z,3.50
2019-01-08T20:06:05.012Z,3.20
2019-01-08T20:07:04.999Z,3.60
2019-01-08T20:08:04.976Z,2.90
2019-01-08T20:09:04.938Z,3.60
2019-01-08T20:10:04.930Z,3.80
2019-01-08T20:11:04.881Z,3.60
2019-01-08T20:12:04.865Z,4.10
2019-01-08T20:13:04.835Z,4.30
2019-01-08T20:14:04.814Z,3.50
2019-01-08T20:15:04.805Z,3.40
2019-01-08T20:16:04.769Z,3.20
2019-01-08T20:17:04.758Z,3.90
2019-01-08T20:18:04.720Z,4.20
2019-01-08T20:19:04.712Z,3.70
2019-01-08T20:20:04.685Z,3.70
2019-01-08T20:21:04.640Z,3.20
2019-01-08T20:22:04.614Z,3.80
2019-01-08T20:23:04.607Z,3.00
2019-01-08T20:24:06.384Z,3.40
2019-01-08T20:25:04.569Z,4.20
2019-01-08T20:26:04.507Z,3.50
2019-01-08T20:27:04.501Z,3.20
2019-01-08T20:28:04.489Z,3.60
2019-01-08T20:29:04.483Z,3.90
2019-01-08T20:30:04.417Z,3.30
2019-01-08T20:31:04.407Z,3.20
2019-01-08T20:32:04.374Z,3.20
2019-01-08T20:33:04.378Z,3.40
2019-01-08T20:34:04.321Z,3.00
2019-01-08T20:35:04.307Z,3.10
2019-01-08T20:36:04.257Z,4.20
2019-01-08T20:37:04.285Z,3.80
2019-01-08T20:38:04.256Z,2.90
2019-01-08T20:39:04.195Z,3.50
2019-01-08T20:40:04.155Z,2.80
2019-01-08T20:41:04.161Z,3.00
2019-01-08T20:42:04.108Z,4.00
2019-01-08T20:43:04.079Z,3.20
2019-01-08T20:44:04.183Z,3.50
2019-01-08T20:45:04.035Z,3.40
2019-01-08T20:46:05.673Z,3.20
2019-01-08T20:47:04.002Z,3.00
2019-01-08T20:48:03.962Z,3.30
2019-01-08T20:49:03.938Z,3.00
2019-01-08T20:50:03.907Z,3.30
2019-01-08T20:51:03.907Z,2.80
2019-01-08T20:52:03.883Z,2.90
2019-01-08T20:53:03.876Z,3.30
2019-01-08T20:54:03.822Z,2.90
2019-01-08T20:55:03.793Z,3.20
2019-01-08T20:56:03.778Z,3.20
2019-01-08T20:57:09.030Z,3.20
2019-01-08T20:58:03.716Z,3.00
2019-01-08T20:59:03.711Z,3.00
2019-01-08T21:00:03.676Z,2.80
2019-01-08T21:01:03.646Z,2.90
2019-01-08T21:02:03.614Z,3.20